Air Navigation Services of Czech Republic
Airport: LKPD Updated:  20.05.2022 20:07:30  UTC
 SPECI LKPD 20.05. 20:07 ...
SPECI LKPD 202007Z 22031G43KT 9999 -TSRA SCT027CB 24/14 Q1014 RMK BLACK=